sensor_id;sensor_type;location;lat;lon;timestamp;temperature;humidity
20996;DHT22;10656;52.200;21.052;2023-10-09T00:10:35;3.50;99.80
20996;DHT22;10656;52.200;21.052;2023-10-09T00:14:56;3.40;99.40
20996;DHT22;10656;52.200;21.052;2023-10-09T00:45:43;3.80;97.50
20996;DHT22;10656;52.200;21.052;2023-10-09T01:06:23;4.00;96.90
20996;DHT22;10656;52.200;21.052;2023-10-09T01:26:24;4.10;96.30
20996;DHT22;10656;52.200;21.052;2023-10-09T01:56:59;3.60;99.90
20996;DHT22;10656;52.200;21.052;2023-10-09T02:00:02;3.70;99.90
20996;DHT22;10656;52.200;21.052;2023-10-09T02:22:29;4.40;94.10
20996;DHT22;10656;52.200;21.052;2023-10-09T02:57:47;4.30;94.30
20996;DHT22;10656;52.200;21.052;2023-10-09T03:28:16;4.20;94.60
20996;DHT22;10656;52.200;21.052;2023-10-09T03:53:40;4.10;96.10
20996;DHT22;10656;52.200;21.052;2023-10-09T03:56:34;4.20;96.90
20996;DHT22;10656;52.200;21.052;2023-10-09T04:09:00;4.10;97.70
20996;DHT22;10656;52.200;21.052;2023-10-09T04:39:09;4.50;94.70
20996;DHT22;10656;52.200;21.052;2023-10-09T05:04:19;4.70;93.60
20996;DHT22;10656;52.200;21.052;2023-10-09T05:29:39;4.60;94.00
20996;DHT22;10656;52.200;21.052;2023-10-09T06:10:25;5.30;93.40
20996;DHT22;10656;52.200;21.052;2023-10-09T06:35:51;5.70;90.90
20996;DHT22;10656;52.200;21.052;2023-10-09T07:06:26;6.50;90.10
20996;DHT22;10656;52.200;21.052;2023-10-09T07:32:39;7.20;91.20
20996;DHT22;10656;52.200;21.052;2023-10-09T07:36:49;7.50;90.80
20996;DHT22;10656;52.200;21.052;2023-10-09T07:57:11;8.50;79.50
20996;DHT22;10656;52.200;21.052;2023-10-09T08:27:42;9.70;75.30
20996;DHT22;10656;52.200;21.052;2023-10-09T08:32:02;9.70;75.40
20996;DHT22;10656;52.200;21.052;2023-10-09T09:07:39;10.00;73.10
20996;DHT22;10656;52.200;21.052;2023-10-09T09:33:21;10.60;73.20
20996;DHT22;10656;52.200;21.052;2023-10-09T10:08:36;10.90;64.70
20996;DHT22;10656;52.200;21.052;2023-10-09T10:34:25;12.00;61.00
20996;DHT22;10656;52.200;21.052;2023-10-09T11:04:55;12.00;59.30
20996;DHT22;10656;52.200;21.052;2023-10-09T11:08:56;12.00;58.40
20996;DHT22;10656;52.200;21.052;2023-10-09T11:35:21;11.50;58.80
20996;DHT22;10656;52.200;21.052;2023-10-09T12:05:43;11.30;61.00
20996;DHT22;10656;52.200;21.052;2023-10-09T12:12:57;11.20;62.60
20996;DHT22;10656;52.200;21.052;2023-10-09T12:25:48;11.50;73.30
20996;DHT22;10656;52.200;21.052;2023-10-09T12:51:26;11.40;78.50
20996;DHT22;10656;52.200;21.052;2023-10-09T13:16:35;11.00;80.90
20996;DHT22;10656;52.200;21.052;2023-10-09T13:42:12;10.50;83.90
20996;DHT22;10656;52.200;21.052;2023-10-09T14:12:38;9.80;87.40
20996;DHT22;10656;52.200;21.052;2023-10-09T14:37:47;9.00;92.00
20996;DHT22;10656;52.200;21.052;2023-10-09T14:40:53;8.90;92.50
20996;DHT22;10656;52.200;21.052;2023-10-09T14:57:55;8.60;95.00
20996;DHT22;10656;52.200;21.052;2023-10-09T15:23:34;8.70;98.00
20996;DHT22;10656;52.200;21.052;2023-10-09T15:48:38;8.10;99.90
20996;DHT22;10656;52.200;21.052;2023-10-09T16:19:28;7.30;99.90
20996;DHT22;10656;52.200;21.052;2023-10-09T16:23:49;7.30;99.90
20996;DHT22;10656;52.200;21.052;2023-10-09T16:49:51;6.80;99.90
20996;DHT22;10656;52.200;21.052;2023-10-09T17:20:00;6.00;99.90
20996;DHT22;10656;52.200;21.052;2023-10-09T17:50:45;5.80;99.90
20996;DHT22;10656;52.200;21.052;2023-10-09T18:11:03;5.20;99.90
20996;DHT22;10656;52.200;21.052;2023-10-09T19:16:49;5.30;99.90
20996;DHT22;10656;52.200;21.052;2023-10-09T19:42:11;5.10;99.90
20996;DHT22;10656;52.200;21.052;2023-10-09T19:49:31;4.80;99.90
20996;DHT22;10656;52.200;21.052;2023-10-09T20:02:12;4.50;99.90
20996;DHT22;10656;52.200;21.052;2023-10-09T20:32:43;4.90;99.90
20996;DHT22;10656;52.200;21.052;2023-10-09T20:52:46;4.70;99.90
20996;DHT22;10656;52.200;21.052;2023-10-09T21:23:05;4.40;99.90
20996;DHT22;10656;52.200;21.052;2023-10-09T21:43:38;5.20;99.90
20996;DHT22;10656;52.200;21.052;2023-10-09T22:08:45;5.50;99.90
20996;DHT22;10656;52.200;21.052;2023-10-09T22:34:28;5.10;99.90
20996;DHT22;10656;52.200;21.052;2023-10-09T22:59:53;4.80;99.90
20996;DHT22;10656;52.200;21.052;2023-10-09T23:20:12;4.90;99.90
20996;DHT22;10656;52.200;21.052;2023-10-09T23:45:42;4.80;99.90
